Overview Statistics Trail Chart Weather Telemetry Raw packets
 

This is the latest recevied weather packets stored in our database for station/object OK2VOP-6. If no packets are shown the sender has not sent any weather packets the latest 10 day(s).

<< 13 14 15 16 17 18 19 >>
Time Temp. Humidity Pressure Rain* Wind** Luminosity Snow
1788272242 26.11° C 10% - 0 mm - - -
1788271038 26.67° C 7% - 0 mm - - -
1788269833 27.78° C 6% - 0 mm - - -
1788268628 27.78° C 7% - 0 mm - - -
1788267423 25° C 14% - 0 mm - - -
1788266218 25.56° C 13% - 0 mm - - -
1788265014 27.22° C 10% - 0 mm - - -
1788263809 26.11° C 16% - 0 mm - - -
1788262604 25° C 15% - 0 mm - - -
1788261399 25° C 17% - 0 mm - - -
1788260194 25° C 17% - 0 mm - - -
1788258989 25° C 21% - 0 mm - - -
1788257784 23.33° C 21% - 0 mm - - -
1788256580 24.44° C 21% - 0 mm - - -
1788255375 23.33° C 23% - 0 mm - - -
1788254170 23.33° C 24% - 0 mm - - -
1788252965 22.78° C 28% - 0 mm - - -
1788251760 22.78° C 27% - 0 mm - - -
1788250555 22.22° C 28% - 0 mm - - -
1788249350 21.67° C 29% - 0 mm - - -
1788248145 21.11° C 33% - 0 mm - - -
1788246940 20.56° C 34% - 0 mm - - -
1788245736 20° C 36% - 0 mm - - -
1788244531 20° C 40% - 0 mm - - -
1788243326 18.89° C 41% - 0 mm - - -

* Rain latest hour (hover to see other rain measurements)
** Current wind speed in m/s (hover to see current wind gust speed)